Time;durP1;ratioP1;P1;durP2;ratioP2;P2;SDS_P1;SDS_P2;PMS_P1;PMS_P2;Temp;Humidity;BMP_temperature;BMP_pressure;BME280_temperature;BME280_humidity;BME280_pressure;Samples;Min_cycle;Max_cycle;Signal;HPM_P1;HPM_P2
2023/06/15 00:00:30;;;;;;;5.37;3.47;;;;;;;16.03;63.46;101134.88;5012201;28;20228;-87
2023/06/15 00:02:57;;;;;;;4.57;3.50;;;;;;;15.99;63.31;101139.63;5003763;28;20212;-87
2023/06/15 00:05:23;;;;;;;4.37;3.80;;;;;;;15.92;62.89;101143.78;5009833;28;20230;-87
2023/06/15 00:07:51;;;;;;;6.60;4.07;;;;;;;15.80;62.89;101148.25;5009867;28;20216;-86
2023/06/15 00:10:18;;;;;;;7.63;4.13;;;;;;;15.71;63.37;101143.59;5005164;28;20721;-86
2023/06/15 00:12:44;;;;;;;7.60;4.20;;;;;;;15.65;64.02;101140.50;5006628;28;20203;-86
2023/06/15 00:15:11;;;;;;;5.63;3.80;;;;;;;15.58;63.75;101145.53;5011508;28;20239;-86
2023/06/15 00:17:41;;;;;;;5.67;4.20;;;;;;;15.52;64.44;101152.16;5004197;28;20212;-86
2023/06/15 00:20:09;;;;;;;4.30;3.93;;;;;;;15.50;64.64;101142.50;5008638;28;20643;-87
2023/06/15 00:22:38;;;;;;;4.43;3.90;;;;;;;15.46;64.47;101147.25;5002724;28;20708;-87
2023/06/15 00:25:07;;;;;;;6.67;4.03;;;;;;;15.39;64.21;101145.16;5002101;28;20204;-87
2023/06/15 00:27:34;;;;;;;6.43;4.33;;;;;;;15.30;63.93;101146.69;5006375;28;20216;-87
2023/06/15 00:30:00;;;;;;;4.53;4.10;;;;;;;15.20;64.26;101148.38;5004178;28;20596;-86
2023/06/15 00:32:27;;;;;;;5.20;3.40;;;;;;;15.14;65.11;101147.00;4997398;28;20223;-87
2023/06/15 00:34:53;;;;;;;4.40;4.00;;;;;;;15.11;65.70;101152.59;5001787;28;20234;-86
2023/06/15 00:37:20;;;;;;;6.30;3.67;;;;;;;15.10;65.84;101142.81;5003859;28;20226;-86
2023/06/15 00:39:46;;;;;;;7.10;4.07;;;;;;;15.12;65.60;101153.44;5006343;28;20582;-87
2023/06/15 00:42:14;;;;;;;5.20;4.40;;;;;;;15.10;65.62;101150.03;5004798;28;20211;-87
2023/06/15 00:44:41;;;;;;;4.87;3.87;;;;;;;15.09;65.60;101151.00;5009486;28;20208;-87
2023/06/15 00:47:07;;;;;;;8.23;4.27;;;;;;;15.08;65.75;101157.31;5007750;28;20238;-86
2023/06/15 00:49:34;;;;;;;8.67;4.30;;;;;;;15.06;65.72;101153.88;5002383;28;20210;-87
2023/06/15 00:52:02;;;;;;;4.67;4.07;;;;;;;15.03;65.87;101149.63;5010030;28;20219;-88
2023/06/15 00:54:30;;;;;;;8.70;4.57;;;;;;;15.04;65.91;101154.03;5008368;28;20219;-87
2023/06/15 00:56:57;;;;;;;4.70;3.93;;;;;;;15.03;65.83;101149.63;4999190;28;20610;-88
2023/06/15 00:59:25;;;;;;;9.50;4.00;;;;;;;15.02;65.78;101149.75;4997535;28;20235;-86
2023/06/15 01:01:54;;;;;;;5.80;5.17;;;;;;;14.98;66.12;101149.13;4998516;28;20203;-86
2023/06/15 01:04:24;;;;;;;7.07;4.93;;;;;;;14.96;66.56;101145.69;5007352;28;20208;-87
2023/06/15 01:06:52;;;;;;;6.83;4.70;;;;;;;14.95;67.42;101146.66;5006484;28;20229;-87
2023/06/15 01:09:21;;;;;;;6.73;4.77;;;;;;;14.94;67.61;101144.94;5008202;28;20218;-86
2023/06/15 01:11:50;;;;;;;6.10;4.30;;;;;;;14.90;67.37;101140.75;5007440;28;20269;-86
2023/06/15 01:14:18;;;;;;;7.27;4.83;;;;;;;14.86;67.94;101141.97;5010342;28;20214;-86
2023/06/15 01:16:52;;;;;;;5.43;4.93;;;;;;;14.81;67.86;101147.66;5007178;28;20235;-87
2023/06/15 01:19:34;;;;;;;6.93;4.70;;;;;;;14.75;67.73;101141.88;5008401;28;20273;-87
2023/06/15 01:22:07;;;;;;;7.67;4.90;;;;;;;14.69;68.15;101142.34;5010196;28;20207;-87
2023/06/15 01:24:37;;;;;;;5.50;4.70;;;;;;;14.65;69.08;101144.41;5010301;28;20200;-87
2023/06/15 01:27:09;;;;;;;7.67;5.00;;;;;;;14.62;69.03;101138.38;5010056;28;20230;-85
2023/06/15 01:29:36;;;;;;;5.70;4.57;;;;;;;14.59;69.41;101134.09;5009207;28;20199;-86
2023/06/15 01:32:04;;;;;;;5.93;4.90;;;;;;;14.57;69.53;101134.22;5001805;28;20207;-87
2023/06/15 01:34:31;;;;;;;5.30;4.50;;;;;;;14.57;69.47;101136.88;5002508;28;20214;-87
2023/06/15 01:36:58;;;;;;;7.27;5.50;;;;;;;14.54;69.67;101142.47;5006830;28;20259;-87
2023/06/15 01:39:24;;;;;;;8.83;4.73;;;;;;;14.52;69.69;101138.19;5002688;28;21176;-87
2023/06/15 01:41:51;;;;;;;5.37;4.73;;;;;;;14.48;69.79;101137.56;5010661;28;20207;-86
2023/06/15 01:44:19;;;;;;;6.07;4.57;;;;;;;14.47;70.02;101137.69;5009679;28;20207;-87
2023/06/15 01:46:46;;;;;;;6.47;5.00;;;;;;;14.45;69.70;101132.44;5010692;28;20231;-87
2023/06/15 01:49:13;;;;;;;7.73;4.77;;;;;;;14.42;70.36;101142.50;5010161;28;20206;-87
2023/06/15 01:51:41;;;;;;;5.17;4.63;;;;;;;14.39;70.10;101137.31;5009828;28;20206;-86
2023/06/15 01:54:07;;;;;;;5.40;4.70;;;;;;;14.34;70.80;101140.31;5010366;28;20221;-87
2023/06/15 01:56:34;;;;;;;6.97;4.40;;;;;;;14.31;70.57;101137.88;5007404;28;20233;-88
2023/06/15 01:59:00;;;;;;;7.03;4.53;;;;;;;14.30;71.23;101133.50;5007435;28;20199;-88
2023/06/15 02:01:28;;;;;;;7.00;4.43;;;;;;;14.30;71.14;101135.31;5013228;28;20210;-87
2023/06/15 02:03:55;;;;;;;6.13;4.37;;;;;;;14.28;71.14;101135.41;5011446;28;20215;-86
2023/06/15 02:06:21;;;;;;;6.50;5.33;;;;;;;14.25;71.42;101130.28;5006974;28;20707;-88
2023/06/15 02:08:48;;;;;;;5.80;4.57;;;;;;;14.21;71.44;101128.78;5009321;28;20213;-87
2023/06/15 02:11:15;;;;;;;5.10;4.47;;;;;;;14.18;71.25;101135.19;5013889;28;20210;-87
2023/06/15 02:13:42;;;;;;;7.67;5.03;;;;;;;14.15;71.09;101134.59;5013456;28;20204;-87
2023/06/15 02:16:09;;;;;;;5.90;4.83;;;;;;;14.09;71.02;101135.00;4999614;28;20227;-87
2023/06/15 02:18:37;;;;;;;6.67;5.10;;;;;;;14.01;71.63;101132.00;5011366;28;20242;-86
2023/06/15 02:21:03;;;;;;;7.00;5.27;;;;;;;13.94;72.28;101131.59;5010144;28;20223;-87
2023/06/15 02:23:32;;;;;;;6.70;5.20;;;;;;;13.85;72.13;101138.41;5006614;28;20211;-86
2023/06/15 02:25:59;;;;;;;8.43;4.50;;;;;;;13.77;72.25;101138.09;5011656;28;20685;-86
2023/06/15 02:28:25;;;;;;;6.73;5.03;;;;;;;13.72;72.77;101142.06;5002742;28;20239;-88
2023/06/15 02:30:52;;;;;;;6.10;4.97;;;;;;;13.68;73.18;101144.09;5009680;28;20207;-87
2023/06/15 02:33:19;;;;;;;7.77;5.10;;;;;;;13.67;73.62;101144.19;4999059;28;20227;-88
2023/06/15 02:35:47;;;;;;;5.53;4.90;;;;;;;13.66;73.57;101135.28;5011188;28;20246;-87
2023/06/15 02:38:13;;;;;;;5.60;4.50;;;;;;;13.67;73.40;101133.47;4998844;28;20204;-87
2023/06/15 02:40:39;;;;;;;6.27;4.50;;;;;;;13.65;73.75;101130.91;5008530;28;20231;-88
2023/06/15 02:43:06;;;;;;;6.67;5.03;;;;;;;13.63;73.56;101142.66;5013282;28;20211;-87
2023/06/15 02:45:32;;;;;;;5.87;5.00;;;;;;;13.57;73.49;101143.97;5013929;28;20234;-88
2023/06/15 02:47:59;;;;;;;5.20;4.70;;;;;;;13.54;73.62;101142.34;5006931;28;20314;-87
2023/06/15 02:50:26;;;;;;;8.33;5.33;;;;;;;13.51;73.51;101145.22;5004961;28;20327;-86
2023/06/15 02:52:54;;;;;;;5.57;5.03;;;;;;;13.53;73.79;101150.47;5008237;28;20291;-86
2023/06/15 02:55:21;;;;;;;6.80;5.00;;;;;;;13.51;73.80;101147.91;5006000;28;20268;-86
2023/06/15 02:57:48;;;;;;;6.13;5.47;;;;;;;13.47;73.82;101148.22;5012175;28;20222;-88
2023/06/15 03:00:17;;;;;;;7.97;5.63;;;;;;;13.41;73.44;101143.28;5002135;28;20234;-87
2023/06/15 03:02:44;;;;;;;6.27;5.23;;;;;;;13.29;72.96;101150.28;5004424;28;20215;-86
2023/06/15 03:05:11;;;;;;;5.70;5.07;;;;;;;13.19;73.29;101157.22;5007083;28;20211;-87
2023/06/15 03:07:40;;;;;;;6.67;4.80;;;;;;;13.12;73.91;101155.88;5007972;28;20212;-87
2023/06/15 03:10:09;;;;;;;7.03;4.80;;;;;;;13.06;73.78;101157.16;5011841;28;20213;-86
2023/06/15 03:12:35;;;;;;;6.97;5.37;;;;;;;13.02;74.55;101158.31;5007021;28;20660;-87
2023/06/15 03:15:02;;;;;;;6.60;5.50;;;;;;;13.01;74.76;101156.59;5004126;28;20204;-86
2023/06/15 03:17:29;;;;;;;7.10;5.70;;;;;;;12.98;74.51;101153.25;5011203;28;20226;-87
2023/06/15 03:19:55;;;;;;;7.20;5.60;;;;;;;12.96;74.85;101165.88;5008975;28;20546;-86
2023/06/15 03:22:24;;;;;;;6.73;5.13;;;;;;;12.89;75.06;101165.41;5009311;28;20658;-87
2023/06/15 03:24:53;;;;;;;7.00;5.67;;;;;;;12.85;75.90;101169.25;5014801;28;20917;-87
2023/06/15 03:27:21;;;;;;;7.23;5.57;;;;;;;12.84;77.08;101165.72;5012628;28;20227;-86
2023/06/15 03:29:49;;;;;;;7.47;5.83;;;;;;;12.86;77.73;101165.63;4999595;28;20195;-86
2023/06/15 03:32:15;;;;;;;6.10;5.50;;;;;;;12.88;77.94;101168.19;5003301;28;20230;-86
2023/06/15 03:34:43;;;;;;;7.20;5.10;;;;;;;12.92;77.87;101173.22;5012807;28;20214;-88
2023/06/15 03:37:10;;;;;;;9.37;4.90;;;;;;;12.94;78.29;101165.97;4999233;28;20227;-87
2023/06/15 03:39:36;;;;;;;8.00;4.93;;;;;;;12.95;77.48;101177.50;5009804;28;20700;-86
2023/06/15 03:42:03;;;;;;;6.87;5.07;;;;;;;12.94;76.89;101170.44;5003884;28;20734;-86
2023/06/15 03:44:31;;;;;;;8.87;5.10;;;;;;;12.94;76.47;101179.31;4998931;28;20218;-85
2023/06/15 03:46:57;;;;;;;6.73;4.60;;;;;;;12.93;76.26;101176.75;5011487;28;20226;-86
2023/06/15 03:49:24;;;;;;;5.30;4.80;;;;;;;12.91;75.97;101167.97;5006172;28;20210;-87
2023/06/15 03:51:50;;;;;;;9.33;4.73;;;;;;;12.89;75.89;101168.09;5005533;28;20206;-87
2023/06/15 03:54:17;;;;;;;8.47;5.20;;;;;;;12.86;76.03;101168.28;5010724;28;20207;-87
2023/06/15 03:56:44;;;;;;;5.50;4.50;;;;;;;12.83;76.00;101172.00;5006435;28;20223;-88
2023/06/15 03:59:10;;;;;;;7.20;5.57;;;;;;;12.81;75.97;101181.09;5007655;28;20207;-88
2023/06/15 04:01:38;;;;;;;6.90;4.53;;;;;;;12.79;75.75;101177.66;5001139;28;20223;-86
2023/06/15 04:04:05;;;;;;;6.37;4.33;;;;;;;12.75;76.33;101174.31;5004906;28;20206;-86
2023/06/15 04:06:32;;;;;;;6.10;4.90;;;;;;;12.73;76.65;101172.69;5008848;28;20228;-86
2023/06/15 04:08:59;;;;;;;6.13;4.60;;;;;;;12.75;76.84;101176.97;5009384;28;20563;-87
2023/06/15 04:11:26;;;;;;;6.63;5.27;;;;;;;12.76;76.97;101177.84;5006020;28;20199;-87
2023/06/15 04:13:52;;;;;;;8.40;5.30;;;;;;;12.76;77.07;101188.53;5012261;28;20202;-87
2023/06/15 04:16:19;;;;;;;5.73;5.07;;;;;;;12.77;77.20;101200.94;5008137;28;20219;-87
2023/06/15 04:18:47;;;;;;;5.47;4.90;;;;;;;12.75;77.52;101193.00;5008560;28;20209;-88
2023/06/15 04:21:13;;;;;;;6.83;5.07;;;;;;;12.75;77.54;101195.69;4997256;28;20222;-88
2023/06/15 04:23:42;;;;;;;7.33;5.03;;;;;;;12.75;77.97;101193.00;5010335;28;20218;-87
2023/06/15 04:26:09;;;;;;;12.53;5.33;;;;;;;12.80;78.30;101192.72;5005383;28;20227;-88
2023/06/15 04:28:36;;;;;;;7.67;5.00;;;;;;;12.83;78.41;101200.56;5006792;28;20203;-88
2023/06/15 04:31:10;;;;;;;6.33;4.93;;;;;;;12.88;78.44;101195.78;5011825;28;20203;-88
2023/06/15 04:33:42;;;;;;;6.90;4.60;;;;;;;12.93;78.95;101199.00;5009241;28;20209;-87
2023/06/15 04:36:12;;;;;;;9.23;4.80;;;;;;;12.98;79.07;101204.06;5002308;28;20233;-87
2023/06/15 04:38:38;;;;;;;8.37;5.73;;;;;;;13.06;79.30;101209.78;5008160;28;20209;-87
2023/06/15 04:41:07;;;;;;;8.37;5.27;;;;;;;13.10;78.98;101213.94;5011663;28;20225;-88
2023/06/15 04:43:34;;;;;;;8.70;5.30;;;;;;;13.15;79.05;101202.03;5009193;28;20285;-88
2023/06/15 04:46:00;;;;;;;7.87;6.20;;;;;;;13.20;79.00;101209.78;5002996;28;20221;-87
2023/06/15 04:48:27;;;;;;;7.93;6.10;;;;;;;13.24;79.04;101205.09;5010830;28;20211;-88
2023/06/15 04:50:56;;;;;;;7.20;5.63;;;;;;;13.28;79.76;101210.09;5003937;28;20199;-88
2023/06/15 04:53:24;;;;;;;12.33;6.20;;;;;;;13.36;79.66;101214.97;5007551;28;20234;-87
2023/06/15 04:55:54;;;;;;;7.60;6.03;;;;;;;13.43;80.23;101213.63;4999460;28;20693;-88
2023/06/15 04:58:21;;;;;;;7.20;6.50;;;;;;;13.48;80.50;101206.13;5005619;28;20207;-87
2023/06/15 05:00:48;;;;;;;8.33;6.90;;;;;;;13.55;81.14;101210.97;5010454;28;20592;-88
2023/06/15 05:03:14;;;;;;;7.23;6.53;;;;;;;13.63;81.75;101213.13;5002801;28;20934;-86
2023/06/15 05:05:41;;;;;;;8.50;6.93;;;;;;;13.71;82.90;101204.59;5009277;28;20254;-86
2023/06/15 05:08:07;;;;;;;14.53;7.70;;;;;;;13.79;83.22;101211.13;5010259;28;20203;-87
2023/06/15 05:10:35;;;;;;;11.57;7.73;;;;;;;13.89;84.32;101214.91;5011846;28;20194;-85
2023/06/15 05:13:03;;;;;;;8.37;6.47;;;;;;;13.97;84.31;101214.41;5013612;28;20198;-84
2023/06/15 05:15:29;;;;;;;7.97;7.10;;;;;;;14.05;83.94;101211.16;5010104;28;20259;-85
2023/06/15 05:17:56;;;;;;;6.47;5.77;;;;;;;14.09;83.00;101208.19;5010381;28;20206;-85
2023/06/15 05:20:22;;;;;;;7.70;6.10;;;;;;;14.12;82.22;101216.00;5012476;28;20235;-87
2023/06/15 05:22:49;;;;;;;8.00;6.03;;;;;;;14.16;80.73;101204.09;5012431;28;20213;-87
2023/06/15 05:25:15;;;;;;;6.43;5.70;;;;;;;14.21;79.43;101199.28;5003953;28;20582;-86
2023/06/15 05:27:43;;;;;;;9.10;5.20;;;;;;;14.28;77.73;101207.75;5000450;28;20203;-86
2023/06/15 05:30:11;;;;;;;5.57;4.80;;;;;;;14.37;77.10;101204.41;5005641;28;20199;-86
2023/06/15 05:32:38;;;;;;;6.70;5.67;;;;;;;14.48;76.19;101209.06;5003482;28;20207;-87
2023/06/15 05:35:07;;;;;;;10.27;5.80;;;;;;;14.64;75.20;101211.53;5004996;28;20235;-86
2023/06/15 05:37:33;;;;;;;7.13;5.90;;;;;;;14.79;74.32;101210.41;5005611;28;20234;-85
2023/06/15 05:40:00;;;;;;;5.90;5.40;;;;;;;14.92;73.94;101212.09;5011023;28;20207;-85
2023/06/15 05:42:27;;;;;;;7.03;5.40;;;;;;;15.12;73.38;101215.16;5003204;28;20208;-86
2023/06/15 05:44:54;;;;;;;11.77;5.77;;;;;;;15.29;73.58;101215.63;5008726;28;20223;-87
2023/06/15 05:47:21;;;;;;;6.70;5.83;;;;;;;15.47;73.09;101217.91;5002164;28;20229;-86
2023/06/15 05:49:48;;;;;;;7.40;6.43;;;;;;;15.68;73.00;101229.75;5010916;28;20212;-85
2023/06/15 05:52:17;;;;;;;6.63;5.90;;;;;;;15.87;72.68;101223.84;5003426;28;20543;-85
2023/06/15 05:54:44;;;;;;;5.77;5.23;;;;;;;16.04;72.08;101225.25;5004410;28;20222;-85
2023/06/15 05:57:11;;;;;;;7.03;5.43;;;;;;;16.18;70.63;101225.03;4994619;28;20299;-85
2023/06/15 05:59:38;;;;;;;7.37;5.50;;;;;;;16.29;69.01;101223.22;5012435;28;20193;-86
2023/06/15 06:02:07;;;;;;;6.07;5.27;;;;;;;16.44;68.32;101218.47;5005402;28;20227;-85
2023/06/15 06:04:34;;;;;;;6.27;5.07;;;;;;;16.60;67.67;101218.13;4999974;28;20207;-85
2023/06/15 06:07:01;;;;;;;7.53;5.27;;;;;;;16.78;67.24;101224.75;4997517;28;20222;-87
2023/06/15 06:09:27;;;;;;;9.93;5.47;;;;;;;16.96;66.50;101222.41;4994994;28;20199;-86
2023/06/15 06:11:54;;;;;;;5.80;4.97;;;;;;;17.14;66.03;101220.06;5011318;28;20201;-87
2023/06/15 06:14:20;;;;;;;6.70;4.80;;;;;;;17.31;65.21;101217.69;5004025;28;20207;-87
2023/06/15 06:16:47;;;;;;;5.50;4.70;;;;;;;17.49;63.79;101220.69;5000157;28;20228;-87
2023/06/15 06:19:15;;;;;;;6.27;4.17;;;;;;;17.63;60.86;101219.53;4995895;28;20208;-86
2023/06/15 06:21:41;;;;;;;6.73;4.37;;;;;;;17.75;59.27;101210.44;5004750;28;20236;-87
2023/06/15 06:24:08;;;;;;;6.10;4.97;;;;;;;17.90;58.26;101214.56;5010529;28;20220;-86
2023/06/15 06:26:35;;;;;;;6.17;4.53;;;;;;;18.09;57.72;101204.91;5001359;28;20684;-87
2023/06/15 06:29:01;;;;;;;6.47;4.70;;;;;;;18.26;56.95;101204.28;5001622;28;20244;-86
2023/06/15 06:31:28;;;;;;;8.33;4.40;;;;;;;18.43;56.72;101211.78;5010675;28;20210;-87
2023/06/15 06:33:54;;;;;;;6.50;4.37;;;;;;;18.60;56.31;101210.31;5005680;28;20679;-86
2023/06/15 06:36:22;;;;;;;6.03;4.60;;;;;;;18.78;56.08;101210.53;5005728;28;20227;-85
2023/06/15 06:38:49;;;;;;;6.27;4.93;;;;;;;18.95;55.82;101217.97;4992993;28;20210;-86
2023/06/15 06:41:15;;;;;;;8.93;4.40;;;;;;;19.12;55.61;101216.47;5005585;28;20226;-85
2023/06/15 06:43:42;;;;;;;5.53;4.13;;;;;;;19.27;54.30;101218.63;4994962;28;20205;-86
2023/06/15 06:46:09;;;;;;;8.53;4.90;;;;;;;19.42;53.43;101217.22;5005634;28;20227;-85
2023/06/15 06:48:36;;;;;;;5.57;4.23;;;;;;;19.55;53.45;101218.81;4998821;28;20219;-86
2023/06/15 06:51:02;;;;;;;6.27;4.30;;;;;;;19.70;53.07;101220.13;5009559;28;20205;-86
2023/06/15 06:53:30;;;;;;;6.20;4.60;;;;;;;19.85;52.34;101212.44;5006815;28;20221;-85
2023/06/15 06:55:56;;;;;;;6.00;4.17;;;;;;;19.98;52.19;101208.44;5007330;28;20225;-87
2023/06/15 06:58:23;;;;;;;5.60;3.87;;;;;;;20.13;51.66;101211.53;5015061;28;20216;-85
2023/06/15 07:00:50;;;;;;;9.67;4.30;;;;;;;20.26;51.42;101211.22;5003557;28;20240;-85
2023/06/15 07:03:16;;;;;;;7.03;4.23;;;;;;;20.42;50.97;101214.22;5005013;28;20214;-86
2023/06/15 07:05:43;;;;;;;6.70;3.90;;;;;;;20.57;50.39;101215.44;5002733;28;20236;-86
2023/06/15 07:08:09;;;;;;;4.90;4.30;;;;;;;20.70;49.93;101218.66;5007523;28;20575;-85
2023/06/15 07:10:37;;;;;;;4.47;3.93;;;;;;;20.83;49.22;101206.63;5013726;28;20205;-86
2023/06/15 07:13:04;;;;;;;5.10;3.70;;;;;;;20.99;49.25;101207.69;4997975;28;20214;-86
2023/06/15 07:15:31;;;;;;;6.97;4.10;;;;;;;21.14;48.50;101208.88;5011149;28;20233;-86
2023/06/15 07:17:58;;;;;;;5.05;3.67;;;;;;;21.27;46.99;101219.41;5001776;28;20887;-86
2023/06/15 07:20:24;;;;;;;3.95;3.40;;;;;;;21.36;45.99;101210.34;5008558;28;20203;-86
2023/06/15 07:22:51;;;;;;;9.55;3.95;;;;;;;21.48;45.58;101213.69;5003852;28;20246;-85
2023/06/15 07:25:17;;;;;;;4.18;3.67;;;;;;;21.64;45.21;101203.00;5003780;28;20220;-86
2023/06/15 07:27:45;;;;;;;6.93;4.05;;;;;;;21.82;44.97;101200.28;5008625;28;20217;-86
2023/06/15 07:30:13;;;;;;;5.32;3.50;;;;;;;21.98;44.39;101203.13;5009793;28;20221;-86
2023/06/15 07:32:40;;;;;;;5.13;3.30;;;;;;;22.13;43.61;101193.44;5011211;28;20199;-85
2023/06/15 07:35:06;;;;;;;5.88;3.30;;;;;;;22.29;42.04;101200.00;5015424;28;20211;-85
2023/06/15 07:37:33;;;;;;;5.10;3.25;;;;;;;22.43;41.41;101189.38;5012751;28;20226;-86
2023/06/15 07:39:59;;;;;;;7.82;3.10;;;;;;;22.56;40.33;101188.13;5013649;28;20211;-86
2023/06/15 07:42:26;;;;;;;3.72;3.20;;;;;;;22.67;39.82;101193.25;5011057;28;20215;-85
2023/06/15 07:44:54;;;;;;;3.08;2.80;;;;;;;22.72;39.21;101196.34;5006331;28;20196;-85
2023/06/15 07:47:20;;;;;;;4.75;2.60;;;;;;;22.74;38.84;101194.31;5003494;28;20299;-86
2023/06/15 07:49:47;;;;;;;4.07;2.80;;;;;;;22.84;39.23;101186.91;5008747;28;20208;-86
2023/06/15 07:52:13;;;;;;;3.15;2.72;;;;;;;22.97;38.57;101197.31;5001488;28;20193;-86
2023/06/15 07:54:40;;;;;;;4.32;2.65;;;;;;;23.06;38.49;101199.06;4997305;28;20218;-85
2023/06/15 07:57:06;;;;;;;7.80;3.00;;;;;;;23.18;37.98;101192.28;5000949;28;20691;-86
2023/06/15 07:59:33;;;;;;;4.25;2.85;;;;;;;23.27;37.59;101196.75;4994417;28;20200;-86
2023/06/15 08:02:02;;;;;;;4.15;2.78;;;;;;;23.41;37.59;101196.09;5001913;28;20215;-86
2023/06/15 08:04:29;;;;;;;3.63;2.65;;;;;;;23.55;36.99;101197.31;5002374;28;20237;-86
2023/06/15 08:06:55;;;;;;;2.95;2.67;;;;;;;23.67;37.10;101192.41;5010204;28;20230;-86
2023/06/15 08:09:22;;;;;;;6.35;3.35;;;;;;;23.79;36.50;101197.34;5004071;28;20206;-86
2023/06/15 08:11:49;;;;;;;6.47;3.13;;;;;;;23.89;36.55;101180.84;5005668;28;20210;-86
2023/06/15 08:14:16;;;;;;;4.93;2.80;;;;;;;24.01;36.59;101181.34;4999973;28;20400;-85
2023/06/15 08:16:42;;;;;;;3.83;3.15;;;;;;;24.20;36.74;101180.97;5006512;28;20221;-85
2023/06/15 08:19:10;;;;;;;3.80;2.75;;;;;;;24.37;36.96;101181.81;4997040;28;20215;-86
2023/06/15 08:21:36;;;;;;;3.55;2.83;;;;;;;24.49;36.08;101183.19;4995192;28;20230;-86
2023/06/15 08:24:03;;;;;;;4.10;2.72;;;;;;;24.58;36.36;101177.50;4998943;28;20249;-85
2023/06/15 08:26:30;;;;;;;4.60;3.05;;;;;;;24.73;35.91;101174.91;5007639;28;20229;-85
2023/06/15 08:28:56;;;;;;;3.42;2.60;;;;;;;24.80;34.14;101178.63;5003922;28;20222;-86
2023/06/15 08:31:23;;;;;;;3.10;2.55;;;;;;;24.88;33.77;101170.44;5001634;28;20210;-87
2023/06/15 08:33:49;;;;;;;4.35;2.80;;;;;;;24.93;34.35;101176.19;5002599;28;20225;-86
2023/06/15 08:36:18;;;;;;;6.70;2.75;;;;;;;25.01;34.22;101171.75;4996975;28;20310;-86
2023/06/15 08:38:44;;;;;;;4.20;2.88;;;;;;;25.10;34.26;101173.41;5006800;28;20206;-86
2023/06/15 08:41:12;;;;;;;5.40;2.88;;;;;;;25.20;34.00;101177.63;5007630;28;20209;-87
2023/06/15 08:43:42;;;;;;;4.25;2.63;;;;;;;25.28;33.45;101179.41;5002620;28;20217;-86
2023/06/15 08:46:10;;;;;;;4.68;2.65;;;;;;;25.31;33.93;101178.22;5001865;28;20234;-86
2023/06/15 08:48:39;;;;;;;2.88;2.33;;;;;;;25.45;33.59;101172.81;5003183;28;20199;-86
2023/06/15 08:51:07;;;;;;;4.28;2.38;;;;;;;25.54;32.54;101176.38;5012793;28;20293;-86
2023/06/15 08:53:38;;;;;;;7.00;2.42;;;;;;;25.60;32.37;101178.38;5006078;28;20230;-86
2023/06/15 08:56:10;;;;;;;3.28;2.35;;;;;;;25.67;32.12;101168.44;4999169;28;20712;-86
2023/06/15 08:58:37;;;;;;;3.65;2.40;;;;;;;25.72;31.34;101178.81;5003520;28;20207;-85
2023/06/15 09:01:05;;;;;;;4.20;2.40;;;;;;;25.74;31.58;101174.88;5001425;28;20214;-86
2023/06/15 09:03:33;;;;;;;3.33;2.30;;;;;;;25.86;31.51;101176.13;5004507;28;20230;-86
2023/06/15 09:06:01;;;;;;;4.95;2.50;;;;;;;25.95;31.44;101168.72;5005275;28;20660;-85
2023/06/15 09:08:28;;;;;;;3.08;2.00;;;;;;;26.05;30.77;101163.00;5005536;28;20222;-87
2023/06/15 09:11:07;;;;;;;3.47;2.20;;;;;;;26.11;30.74;101171.31;5006596;28;20669;-85
2023/06/15 09:13:34;;;;;;;4.93;2.85;;;;;;;26.17;31.01;101161.50;5008680;28;20205;-86
2023/06/15 09:16:01;;;;;;;4.20;2.33;;;;;;;26.20;30.75;101174.78;5003718;28;20229;-84
2023/06/15 09:18:28;;;;;;;6.82;2.65;;;;;;;26.24;30.76;101167.91;5004720;28;20210;-85
2023/06/15 09:20:59;;;;;;;7.40;2.75;;;;;;;26.26;30.82;101166.72;5001068;28;20206;-86
2023/06/15 09:23:25;;;;;;;3.47;2.47;;;;;;;26.31;30.49;101162.59;5006508;28;20222;-86
2023/06/15 09:25:54;;;;;;;4.20;2.40;;;;;;;26.36;30.68;101163.72;5008106;28;20852;-87
2023/06/15 09:28:23;;;;;;;4.00;2.58;;;;;;;26.46;31.14;101155.25;4999942;28;20238;-86
2023/06/15 09:30:53;;;;;;;4.45;2.60;;;;;;;26.57;30.71;101155.63;4995891;28;20688;-86
2023/06/15 09:33:21;;;;;;;4.82;2.45;;;;;;;26.60;30.83;101160.72;5011553;28;20203;-86
2023/06/15 09:35:57;;;;;;;2.65;2.10;;;;;;;26.65;29.69;101151.97;5005503;28;20595;-85
2023/06/15 09:38:23;;;;;;;7.38;2.75;;;;;;;26.66;30.18;101153.66;5004808;28;20202;-84
2023/06/15 09:40:50;;;;;;;4.25;2.45;;;;;;;26.69;30.54;101153.28;5004553;28;20218;-85
2023/06/15 09:43:18;;;;;;;6.63;2.58;;;;;;;26.68;29.75;101151.59;5007418;28;20237;-85
2023/06/15 09:45:53;;;;;;;3.95;2.63;;;;;;;26.70;29.83;101154.94;5003355;28;20261;-85
2023/06/15 09:48:19;;;;;;;3.40;2.45;;;;;;;26.74;29.43;101156.25;5006569;28;20252;-85
2023/06/15 09:50:50;;;;;;;6.30;2.70;;;;;;;26.79;29.67;101152.97;5004188;28;20211;-85
2023/06/15 09:53:17;;;;;;;2.80;2.42;;;;;;;26.75;29.28;101155.22;5009652;28;20758;-85
2023/06/15 09:55:46;;;;;;;7.25;2.80;;;;;;;26.78;29.54;101151.28;5002128;28;20227;-84
2023/06/15 09:58:13;;;;;;;5.22;2.60;;;;;;;26.84;29.91;101153.25;5000296;28;20600;-85
2023/06/15 10:00:39;;;;;;;3.33;2.22;;;;;;;26.93;29.63;101152.94;5000131;28;20207;-85
2023/06/15 10:03:12;;;;;;;3.97;2.13;;;;;;;26.93;28.39;101152.94;5006804;28;20226;-84
2023/06/15 10:05:43;;;;;;;3.00;2.40;;;;;;;26.89;28.06;101148.88;5005928;28;20227;-85
2023/06/15 10:08:12;;;;;;;3.22;2.63;;;;;;;26.92;28.09;101144.94;5000402;28;20211;-85
2023/06/15 10:10:43;;;;;;;3.78;2.53;;;;;;;26.96;27.72;101155.31;5000515;28;20211;-85
2023/06/15 10:13:20;;;;;;;4.63;2.50;;;;;;;27.07;27.94;101137.56;4996664;28;20793;-84
2023/06/15 10:15:52;;;;;;;3.75;2.45;;;;;;;27.19;27.89;101140.66;5003213;28;20296;-85
2023/06/15 10:18:22;;;;;;;3.65;2.45;;;;;;;27.26;27.71;101139.69;5008779;28;20222;-84
2023/06/15 10:20:52;;;;;;;4.30;2.30;;;;;;;27.30;27.46;101140.13;5000944;28;20207;-86
2023/06/15 10:23:21;;;;;;;3.60;2.40;;;;;;;27.36;27.82;101142.09;5008795;28;20802;-85
2023/06/15 10:25:48;;;;;;;3.20;2.40;;;;;;;27.42;27.68;101134.97;5011603;28;20236;-85
2023/06/15 10:28:16;;;;;;;2.72;2.50;;;;;;;27.38;27.21;101136.44;5008473;28;20198;-84
2023/06/15 10:30:49;;;;;;;4.07;2.42;;;;;;;27.40;27.32;101129.75;5012915;28;20223;-84
2023/06/15 10:33:23;;;;;;;4.82;2.38;;;;;;;27.48;26.84;101124.13;5012809;28;20843;-85
2023/06/15 10:35:56;;;;;;;4.70;2.42;;;;;;;27.58;26.67;101121.94;5010542;28;20230;-85
2023/06/15 10:38:33;;;;;;;3.55;2.65;;;;;;;27.65;26.60;101124.72;5011220;28;20685;-85
2023/06/15 10:41:01;;;;;;;4.43;2.72;;;;;;;27.67;27.03;101124.53;5012283;28;20210;-85
2023/06/15 10:43:28;;;;;;;3.03;2.72;;;;;;;27.68;27.02;101126.22;5013659;28;20241;-85
2023/06/15 10:45:54;;;;;;;3.95;2.28;;;;;;;27.67;27.47;101124.53;5003510;28;20281;-85
2023/06/15 10:48:23;;;;;;;3.33;2.33;;;;;;;27.72;27.59;101122.06;5006294;28;20210;-85
2023/06/15 10:50:51;;;;;;;3.28;2.38;;;;;;;27.78;27.54;101121.25;5004912;28;20268;-84
2023/06/15 10:53:26;;;;;;;4.22;2.75;;;;;;;27.89;27.49;101120.72;5011834;28;20246;-85
2023/06/15 10:55:55;;;;;;;4.75;2.67;;;;;;;27.89;27.15;101120.72;5010213;28;20615;-85
2023/06/15 10:58:21;;;;;;;4.82;2.58;;;;;;;27.95;26.46;101107.06;5012026;28;20198;-85
2023/06/15 11:01:05;;;;;;;3.78;2.53;;;;;;;28.07;26.25;101106.53;5007337;28;20207;-85
2023/06/15 11:03:34;;;;;;;3.95;2.80;;;;;;;28.13;26.21;101103.81;5002644;28;20259;-85
2023/06/15 11:06:02;;;;;;;2.67;2.40;;;;;;;28.24;26.04;101105.19;5007039;28;20229;-85
2023/06/15 11:08:32;;;;;;;3.67;2.42;;;;;;;28.37;26.45;101109.91;5011670;28;20206;-84
2023/06/15 11:10:59;;;;;;;3.67;2.55;;;;;;;28.36;25.36;101109.06;5001831;28;20203;-85
2023/06/15 11:13:26;;;;;;;2.83;2.55;;;;;;;28.37;25.96;101102.53;5012010;28;20584;-86
2023/06/15 11:16:09;;;;;;;3.60;2.35;;;;;;;28.42;26.11;101107.41;5009789;28;20219;-86
2023/06/15 11:18:54;;;;;;;2.78;2.50;;;;;;;28.51;26.13;101109.75;5002886;28;20206;-87
2023/06/15 11:21:25;;;;;;;5.10;2.92;;;;;;;28.54;25.40;101103.03;5013002;28;20202;-86
2023/06/15 11:23:57;;;;;;;4.55;2.45;;;;;;;28.48;25.31;101098.38;5013932;28;20203;-85
2023/06/15 11:26:27;;;;;;;4.10;2.88;;;;;;;28.43;25.36;101098.97;5001442;28;20281;-85